sensor_id;sensor_type;location;lat;lon;timestamp;P1;durP1;ratioP1;P2;durP2;ratioP2
33714;SDS011;20043;50.998;4.754;2023-06-22T00:00:42;9.10;;;5.15;;
33714;SDS011;20043;50.998;4.754;2023-06-22T00:03:08;5.85;;;4.85;;
33714;SDS011;20043;50.998;4.754;2023-06-22T00:05:34;6.95;;;4.72;;
33714;SDS011;20043;50.998;4.754;2023-06-22T00:08:01;12.13;;;5.20;;
33714;SDS011;20043;50.998;4.754;2023-06-22T00:10:29;5.57;;;4.47;;
33714;SDS011;20043;50.998;4.754;2023-06-22T00:12:54;7.40;;;5.10;;
33714;SDS011;20043;50.998;4.754;2023-06-22T00:15:20;11.93;;;4.78;;
33714;SDS011;20043;50.998;4.754;2023-06-22T00:17:46;7.60;;;4.70;;
33714;SDS011;20043;50.998;4.754;2023-06-22T00:20:11;12.13;;;5.20;;
33714;SDS011;20043;50.998;4.754;2023-06-22T00:22:37;8.73;;;4.80;;
33714;SDS011;20043;50.998;4.754;2023-06-22T00:25:06;7.65;;;5.38;;
33714;SDS011;20043;50.998;4.754;2023-06-22T00:27:32;8.93;;;5.20;;
33714;SDS011;20043;50.998;4.754;2023-06-22T00:29:57;6.85;;;5.10;;
33714;SDS011;20043;50.998;4.754;2023-06-22T00:32:23;8.30;;;5.15;;
33714;SDS011;20043;50.998;4.754;2023-06-22T00:34:48;8.23;;;5.20;;
33714;SDS011;20043;50.998;4.754;2023-06-22T00:37:15;7.65;;;5.03;;
33714;SDS011;20043;50.998;4.754;2023-06-22T00:39:41;9.02;;;5.63;;
33714;SDS011;20043;50.998;4.754;2023-06-22T00:42:10;9.85;;;5.63;;
33714;SDS011;20043;50.998;4.754;2023-06-22T00:44:36;9.88;;;5.75;;
33714;SDS011;20043;50.998;4.754;2023-06-22T00:47:02;13.80;;;5.72;;
33714;SDS011;20043;50.998;4.754;2023-06-22T00:49:28;6.68;;;4.95;;
33714;SDS011;20043;50.998;4.754;2023-06-22T00:51:54;6.82;;;4.93;;
33714;SDS011;20043;50.998;4.754;2023-06-22T00:54:21;6.57;;;4.80;;
33714;SDS011;20043;50.998;4.754;2023-06-22T00:56:50;12.45;;;5.00;;
33714;SDS011;20043;50.998;4.754;2023-06-22T00:59:19;7.88;;;5.10;;
33714;SDS011;20043;50.998;4.754;2023-06-22T01:01:45;8.65;;;5.07;;
33714;SDS011;20043;50.998;4.754;2023-06-22T01:04:11;6.68;;;5.18;;
33714;SDS011;20043;50.998;4.754;2023-06-22T01:06:38;10.25;;;5.35;;
33714;SDS011;20043;50.998;4.754;2023-06-22T01:09:15;5.78;;;5.10;;
33714;SDS011;20043;50.998;4.754;2023-06-22T01:11:47;5.88;;;4.82;;
33714;SDS011;20043;50.998;4.754;2023-06-22T01:16:49;7.22;;;5.30;;
33714;SDS011;20043;50.998;4.754;2023-06-22T01:21:58;7.70;;;6.35;;
33714;SDS011;20043;50.998;4.754;2023-06-22T01:24:32;10.52;;;6.57;;
33714;SDS011;20043;50.998;4.754;2023-06-22T01:30:02;10.45;;;6.13;;
33714;SDS011;20043;50.998;4.754;2023-06-22T01:32:31;13.18;;;6.07;;
33714;SDS011;20043;50.998;4.754;2023-06-22T01:35:00;8.40;;;5.95;;
33714;SDS011;20043;50.998;4.754;2023-06-22T01:37:28;9.63;;;5.78;;
33714;SDS011;20043;50.998;4.754;2023-06-22T01:39:56;7.55;;;6.10;;
33714;SDS011;20043;50.998;4.754;2023-06-22T01:42:23;7.85;;;6.18;;
33714;SDS011;20043;50.998;4.754;2023-06-22T01:44:51;10.23;;;6.30;;
33714;SDS011;20043;50.998;4.754;2023-06-22T01:47:17;11.10;;;6.35;;
33714;SDS011;20043;50.998;4.754;2023-06-22T01:49:44;11.15;;;6.63;;
33714;SDS011;20043;50.998;4.754;2023-06-22T01:52:10;7.90;;;5.95;;
33714;SDS011;20043;50.998;4.754;2023-06-22T01:54:37;8.05;;;6.10;;
33714;SDS011;20043;50.998;4.754;2023-06-22T01:57:03;8.82;;;5.93;;
33714;SDS011;20043;50.998;4.754;2023-06-22T01:59:32;14.32;;;6.47;;
33714;SDS011;20043;50.998;4.754;2023-06-22T02:02:09;8.63;;;6.35;;
33714;SDS011;20043;50.998;4.754;2023-06-22T02:04:53;8.65;;;5.70;;
33714;SDS011;20043;50.998;4.754;2023-06-22T02:07:49;11.23;;;6.68;;
33714;SDS011;20043;50.998;4.754;2023-06-22T02:10:25;11.93;;;7.15;;
33714;SDS011;20043;50.998;4.754;2023-06-22T02:12:53;8.77;;;6.93;;
33714;SDS011;20043;50.998;4.754;2023-06-22T02:15:19;9.82;;;7.47;;
33714;SDS011;20043;50.998;4.754;2023-06-22T02:17:46;11.05;;;7.28;;
33714;SDS011;20043;50.998;4.754;2023-06-22T02:20:13;11.15;;;7.30;;
33714;SDS011;20043;50.998;4.754;2023-06-22T02:22:39;8.52;;;7.05;;
33714;SDS011;20043;50.998;4.754;2023-06-22T02:25:05;9.20;;;7.05;;
33714;SDS011;20043;50.998;4.754;2023-06-22T02:27:31;9.27;;;6.00;;
33714;SDS011;20043;50.998;4.754;2023-06-22T02:29:57;9.80;;;6.35;;
33714;SDS011;20043;50.998;4.754;2023-06-22T02:32:23;7.20;;;6.00;;
33714;SDS011;20043;50.998;4.754;2023-06-22T02:34:55;12.68;;;7.20;;
33714;SDS011;20043;50.998;4.754;2023-06-22T02:37:21;11.27;;;7.38;;
33714;SDS011;20043;50.998;4.754;2023-06-22T02:39:50;10.52;;;6.85;;
33714;SDS011;20043;50.998;4.754;2023-06-22T02:42:15;12.32;;;7.43;;
33714;SDS011;20043;50.998;4.754;2023-06-22T02:44:45;10.05;;;7.50;;
33714;SDS011;20043;50.998;4.754;2023-06-22T02:47:11;9.35;;;7.38;;
33714;SDS011;20043;50.998;4.754;2023-06-22T02:49:36;10.48;;;7.15;;
33714;SDS011;20043;50.998;4.754;2023-06-22T02:52:02;10.45;;;8.02;;
33714;SDS011;20043;50.998;4.754;2023-06-22T02:54:27;9.93;;;8.00;;
33714;SDS011;20043;50.998;4.754;2023-06-22T02:56:53;15.68;;;8.20;;
33714;SDS011;20043;50.998;4.754;2023-06-22T02:59:19;8.85;;;7.85;;
33714;SDS011;20043;50.998;4.754;2023-06-22T03:01:48;13.45;;;8.13;;
33714;SDS011;20043;50.998;4.754;2023-06-22T03:04:15;10.55;;;7.90;;
33714;SDS011;20043;50.998;4.754;2023-06-22T03:06:41;9.25;;;7.55;;
33714;SDS011;20043;50.998;4.754;2023-06-22T03:09:07;12.65;;;7.95;;
33714;SDS011;20043;50.998;4.754;2023-06-22T03:11:33;9.88;;;8.05;;
33714;SDS011;20043;50.998;4.754;2023-06-22T03:13:59;10.30;;;8.57;;
33714;SDS011;20043;50.998;4.754;2023-06-22T03:16:25;13.73;;;8.82;;
33714;SDS011;20043;50.998;4.754;2023-06-22T03:18:51;15.20;;;8.40;;
33714;SDS011;20043;50.998;4.754;2023-06-22T03:21:18;10.82;;;8.25;;
33714;SDS011;20043;50.998;4.754;2023-06-22T03:23:44;10.73;;;8.13;;
33714;SDS011;20043;50.998;4.754;2023-06-22T03:26:10;14.00;;;8.82;;
33714;SDS011;20043;50.998;4.754;2023-06-22T03:28:37;10.80;;;9.10;;
33714;SDS011;20043;50.998;4.754;2023-06-22T03:31:03;13.00;;;9.38;;
33714;SDS011;20043;50.998;4.754;2023-06-22T03:33:29;16.15;;;9.27;;
33714;SDS011;20043;50.998;4.754;2023-06-22T03:35:55;15.07;;;9.82;;
33714;SDS011;20043;50.998;4.754;2023-06-22T03:38:20;11.18;;;9.15;;
33714;SDS011;20043;50.998;4.754;2023-06-22T03:40:46;10.88;;;8.40;;
33714;SDS011;20043;50.998;4.754;2023-06-22T03:43:11;12.30;;;8.32;;
33714;SDS011;20043;50.998;4.754;2023-06-22T03:45:37;12.73;;;9.45;;
33714;SDS011;20043;50.998;4.754;2023-06-22T03:48:02;13.10;;;8.77;;
33714;SDS011;20043;50.998;4.754;2023-06-22T03:50:28;13.95;;;9.13;;
33714;SDS011;20043;50.998;4.754;2023-06-22T03:52:55;12.30;;;8.95;;
33714;SDS011;20043;50.998;4.754;2023-06-22T03:55:20;11.55;;;8.60;;
33714;SDS011;20043;50.998;4.754;2023-06-22T03:57:46;13.93;;;9.57;;
33714;SDS011;20043;50.998;4.754;2023-06-22T04:00:12;11.20;;;9.45;;
33714;SDS011;20043;50.998;4.754;2023-06-22T04:02:38;17.77;;;9.50;;
33714;SDS011;20043;50.998;4.754;2023-06-22T04:05:04;11.40;;;9.55;;
33714;SDS011;20043;50.998;4.754;2023-06-22T04:07:30;13.25;;;9.32;;
33714;SDS011;20043;50.998;4.754;2023-06-22T04:09:55;14.38;;;9.43;;
33714;SDS011;20043;50.998;4.754;2023-06-22T04:12:21;13.05;;;9.73;;
33714;SDS011;20043;50.998;4.754;2023-06-22T04:14:46;14.23;;;10.35;;
33714;SDS011;20043;50.998;4.754;2023-06-22T04:17:12;13.27;;;9.30;;
33714;SDS011;20043;50.998;4.754;2023-06-22T04:19:39;11.48;;;9.70;;
33714;SDS011;20043;50.998;4.754;2023-06-22T04:22:05;12.13;;;10.48;;
33714;SDS011;20043;50.998;4.754;2023-06-22T04:24:35;15.55;;;9.85;;
33714;SDS011;20043;50.998;4.754;2023-06-22T04:27:00;13.07;;;9.75;;
33714;SDS011;20043;50.998;4.754;2023-06-22T04:29:27;14.48;;;9.95;;
33714;SDS011;20043;50.998;4.754;2023-06-22T04:31:56;12.55;;;9.00;;
33714;SDS011;20043;50.998;4.754;2023-06-22T04:34:23;12.18;;;9.27;;
33714;SDS011;20043;50.998;4.754;2023-06-22T04:36:51;12.48;;;9.68;;
33714;SDS011;20043;50.998;4.754;2023-06-22T04:39:23;12.10;;;10.10;;
33714;SDS011;20043;50.998;4.754;2023-06-22T04:41:49;12.85;;;10.07;;
33714;SDS011;20043;50.998;4.754;2023-06-22T04:44:19;14.43;;;9.93;;
33714;SDS011;20043;50.998;4.754;2023-06-22T04:46:54;11.05;;;8.95;;
33714;SDS011;20043;50.998;4.754;2023-06-22T04:49:28;15.73;;;9.73;;
33714;SDS011;20043;50.998;4.754;2023-06-22T04:51:59;12.98;;;9.82;;
33714;SDS011;20043;50.998;4.754;2023-06-22T04:54:25;14.95;;;9.77;;
33714;SDS011;20043;50.998;4.754;2023-06-22T04:56:51;13.35;;;10.60;;
33714;SDS011;20043;50.998;4.754;2023-06-22T04:59:29;15.57;;;11.02;;
33714;SDS011;20043;50.998;4.754;2023-06-22T05:01:56;15.50;;;10.25;;
33714;SDS011;20043;50.998;4.754;2023-06-22T05:04:23;18.55;;;11.38;;
33714;SDS011;20043;50.998;4.754;2023-06-22T05:06:49;13.10;;;10.32;;
33714;SDS011;20043;50.998;4.754;2023-06-22T05:09:15;16.65;;;10.73;;
33714;SDS011;20043;50.998;4.754;2023-06-22T05:11:42;15.75;;;10.05;;
33714;SDS011;20043;50.998;4.754;2023-06-22T05:14:08;16.88;;;10.50;;
33714;SDS011;20043;50.998;4.754;2023-06-22T05:16:34;13.82;;;10.73;;
33714;SDS011;20043;50.998;4.754;2023-06-22T05:18:59;13.48;;;10.63;;
33714;SDS011;20043;50.998;4.754;2023-06-22T05:21:28;14.15;;;11.02;;
33714;SDS011;20043;50.998;4.754;2023-06-22T05:23:54;13.57;;;12.15;;
33714;SDS011;20043;50.998;4.754;2023-06-22T05:26:21;15.25;;;11.07;;
33714;SDS011;20043;50.998;4.754;2023-06-22T05:28:47;16.50;;;11.18;;
33714;SDS011;20043;50.998;4.754;2023-06-22T05:31:13;14.48;;;11.57;;
33714;SDS011;20043;50.998;4.754;2023-06-22T05:33:40;17.40;;;12.05;;
33714;SDS011;20043;50.998;4.754;2023-06-22T05:36:06;14.80;;;12.48;;
33714;SDS011;20043;50.998;4.754;2023-06-22T05:38:32;15.30;;;11.85;;
33714;SDS011;20043;50.998;4.754;2023-06-22T05:40:57;13.98;;;12.38;;
33714;SDS011;20043;50.998;4.754;2023-06-22T05:43:23;17.92;;;11.55;;
33714;SDS011;20043;50.998;4.754;2023-06-22T05:45:48;14.63;;;11.88;;
33714;SDS011;20043;50.998;4.754;2023-06-22T05:48:14;17.73;;;12.38;;
33714;SDS011;20043;50.998;4.754;2023-06-22T05:50:40;17.20;;;11.55;;
33714;SDS011;20043;50.998;4.754;2023-06-22T05:53:05;17.17;;;12.60;;
33714;SDS011;20043;50.998;4.754;2023-06-22T05:55:32;17.00;;;11.40;;
33714;SDS011;20043;50.998;4.754;2023-06-22T05:57:57;14.68;;;11.73;;
33714;SDS011;20043;50.998;4.754;2023-06-22T06:00:23;17.55;;;11.52;;
33714;SDS011;20043;50.998;4.754;2023-06-22T06:02:49;15.73;;;11.43;;
33714;SDS011;20043;50.998;4.754;2023-06-22T06:05:14;16.90;;;11.15;;
33714;SDS011;20043;50.998;4.754;2023-06-22T06:07:41;14.05;;;11.65;;
33714;SDS011;20043;50.998;4.754;2023-06-22T06:10:07;18.65;;;12.55;;
33714;SDS011;20043;50.998;4.754;2023-06-22T06:12:33;18.05;;;12.13;;
33714;SDS011;20043;50.998;4.754;2023-06-22T06:14:59;16.58;;;13.63;;
33714;SDS011;20043;50.998;4.754;2023-06-22T06:17:24;16.27;;;12.00;;
33714;SDS011;20043;50.998;4.754;2023-06-22T06:19:50;22.80;;;12.85;;
33714;SDS011;20043;50.998;4.754;2023-06-22T06:22:15;18.10;;;12.68;;
33714;SDS011;20043;50.998;4.754;2023-06-22T06:24:41;17.85;;;12.65;;
33714;SDS011;20043;50.998;4.754;2023-06-22T06:27:06;17.58;;;12.80;;
33714;SDS011;20043;50.998;4.754;2023-06-22T06:29:33;16.98;;;12.35;;
33714;SDS011;20043;50.998;4.754;2023-06-22T06:31:58;16.45;;;13.27;;
33714;SDS011;20043;50.998;4.754;2023-06-22T06:34:24;16.40;;;13.68;;
33714;SDS011;20043;50.998;4.754;2023-06-22T06:36:49;17.27;;;13.35;;
33714;SDS011;20043;50.998;4.754;2023-06-22T06:39:15;19.52;;;12.73;;
33714;SDS011;20043;50.998;4.754;2023-06-22T06:41:41;19.90;;;13.30;;
33714;SDS011;20043;50.998;4.754;2023-06-22T06:44:07;17.75;;;13.80;;
33714;SDS011;20043;50.998;4.754;2023-06-22T06:46:32;20.27;;;14.15;;
33714;SDS011;20043;50.998;4.754;2023-06-22T06:48:58;19.65;;;13.32;;
33714;SDS011;20043;50.998;4.754;2023-06-22T06:51:24;21.33;;;13.75;;
33714;SDS011;20043;50.998;4.754;2023-06-22T06:53:49;15.98;;;14.35;;
33714;SDS011;20043;50.998;4.754;2023-06-22T06:56:15;17.42;;;14.40;;
33714;SDS011;20043;50.998;4.754;2023-06-22T06:58:41;18.50;;;14.02;;
33714;SDS011;20043;50.998;4.754;2023-06-22T07:01:07;20.83;;;14.88;;
33714;SDS011;20043;50.998;4.754;2023-06-22T07:03:33;20.48;;;13.80;;
33714;SDS011;20043;50.998;4.754;2023-06-22T07:05:59;22.50;;;16.00;;
33714;SDS011;20043;50.998;4.754;2023-06-22T07:08:25;24.73;;;15.50;;
33714;SDS011;20043;50.998;4.754;2023-06-22T07:10:51;23.02;;;14.70;;
33714;SDS011;20043;50.998;4.754;2023-06-22T07:13:17;21.08;;;15.07;;
33714;SDS011;20043;50.998;4.754;2023-06-22T07:15:43;21.05;;;14.65;;
33714;SDS011;20043;50.998;4.754;2023-06-22T07:18:08;18.35;;;14.15;;
33714;SDS011;20043;50.998;4.754;2023-06-22T07:20:34;20.98;;;15.07;;
33714;SDS011;20043;50.998;4.754;2023-06-22T07:23:00;21.52;;;15.20;;
33714;SDS011;20043;50.998;4.754;2023-06-22T07:25:26;22.60;;;14.40;;
33714;SDS011;20043;50.998;4.754;2023-06-22T07:28:01;21.65;;;14.88;;
33714;SDS011;20043;50.998;4.754;2023-06-22T07:30:28;23.13;;;14.65;;
33714;SDS011;20043;50.998;4.754;2023-06-22T07:32:55;17.38;;;13.77;;
33714;SDS011;20043;50.998;4.754;2023-06-22T07:35:21;17.95;;;14.02;;
33714;SDS011;20043;50.998;4.754;2023-06-22T07:37:47;17.63;;;13.10;;
33714;SDS011;20043;50.998;4.754;2023-06-22T07:40:12;15.07;;;12.65;;
33714;SDS011;20043;50.998;4.754;2023-06-22T07:42:38;18.30;;;12.18;;
33714;SDS011;20043;50.998;4.754;2023-06-22T07:45:04;18.10;;;11.98;;
33714;SDS011;20043;50.998;4.754;2023-06-22T07:47:30;15.82;;;11.98;;
33714;SDS011;20043;50.998;4.754;2023-06-22T07:50:00;17.77;;;10.75;;
33714;SDS011;20043;50.998;4.754;2023-06-22T07:52:26;18.20;;;10.38;;
33714;SDS011;20043;50.998;4.754;2023-06-22T07:54:53;14.13;;;10.00;;
33714;SDS011;20043;50.998;4.754;2023-06-22T07:57:19;11.18;;;9.15;;
33714;SDS011;20043;50.998;4.754;2023-06-22T07:59:44;12.98;;;9.10;;
33714;SDS011;20043;50.998;4.754;2023-06-22T08:02:10;10.30;;;8.40;;
33714;SDS011;20043;50.998;4.754;2023-06-22T08:04:36;11.40;;;7.90;;
33714;SDS011;20043;50.998;4.754;2023-06-22T08:07:02;10.25;;;7.07;;
33714;SDS011;20043;50.998;4.754;2023-06-22T08:09:29;10.85;;;7.35;;
33714;SDS011;20043;50.998;4.754;2023-06-22T08:11:56;12.52;;;7.10;;
33714;SDS011;20043;50.998;4.754;2023-06-22T08:14:21;14.43;;;6.88;;
33714;SDS011;20043;50.998;4.754;2023-06-22T08:16:48;16.55;;;7.07;;
33714;SDS011;20043;50.998;4.754;2023-06-22T08:19:13;11.15;;;6.43;;
33714;SDS011;20043;50.998;4.754;2023-06-22T08:21:39;11.48;;;6.82;;
33714;SDS011;20043;50.998;4.754;2023-06-22T08:24:05;10.75;;;6.93;;
33714;SDS011;20043;50.998;4.754;2023-06-22T08:26:32;9.85;;;6.25;;
33714;SDS011;20043;50.998;4.754;2023-06-22T08:29:01;7.28;;;6.47;;
33714;SDS011;20043;50.998;4.754;2023-06-22T08:31:27;6.63;;;5.95;;
33714;SDS011;20043;50.998;4.754;2023-06-22T08:33:52;11.90;;;6.53;;
33714;SDS011;20043;50.998;4.754;2023-06-22T08:36:18;14.13;;;6.07;;
33714;SDS011;20043;50.998;4.754;2023-06-22T08:38:43;9.18;;;6.28;;
33714;SDS011;20043;50.998;4.754;2023-06-22T08:41:10;11.02;;;5.95;;
33714;SDS011;20043;50.998;4.754;2023-06-22T08:43:35;9.00;;;6.05;;
33714;SDS011;20043;50.998;4.754;2023-06-22T08:46:07;8.55;;;5.75;;
33714;SDS011;20043;50.998;4.754;2023-06-22T08:48:33;10.43;;;5.60;;
33714;SDS011;20043;50.998;4.754;2023-06-22T08:50:58;12.05;;;6.03;;
33714;SDS011;20043;50.998;4.754;2023-06-22T08:53:24;8.13;;;5.28;;
33714;SDS011;20043;50.998;4.754;2023-06-22T08:55:49;6.28;;;4.93;;
33714;SDS011;20043;50.998;4.754;2023-06-22T08:58:15;11.98;;;5.47;;
33714;SDS011;20043;50.998;4.754;2023-06-22T09:00:41;8.15;;;5.22;;
33714;SDS011;20043;50.998;4.754;2023-06-22T09:03:07;6.50;;;5.35;;
33714;SDS011;20043;50.998;4.754;2023-06-22T09:05:33;9.00;;;5.18;;
33714;SDS011;20043;50.998;4.754;2023-06-22T09:07:58;9.30;;;5.18;;
33714;SDS011;20043;50.998;4.754;2023-06-22T09:10:24;8.60;;;4.80;;
33714;SDS011;20043;50.998;4.754;2023-06-22T09:12:50;9.95;;;5.22;;
33714;SDS011;20043;50.998;4.754;2023-06-22T09:15:16;7.53;;;5.28;;
33714;SDS011;20043;50.998;4.754;2023-06-22T09:17:42;12.32;;;5.85;;
33714;SDS011;20043;50.998;4.754;2023-06-22T09:20:08;8.65;;;5.82;;
33714;SDS011;20043;50.998;4.754;2023-06-22T09:22:35;10.30;;;5.15;;
33714;SDS011;20043;50.998;4.754;2023-06-22T09:25:01;9.95;;;5.30;;
33714;SDS011;20043;50.998;4.754;2023-06-22T09:27:28;12.60;;;5.90;;
33714;SDS011;20043;50.998;4.754;2023-06-22T09:29:54;10.57;;;5.50;;
33714;SDS011;20043;50.998;4.754;2023-06-22T09:32:19;12.55;;;5.80;;
33714;SDS011;20043;50.998;4.754;2023-06-22T09:34:45;8.90;;;6.32;;
33714;SDS011;20043;50.998;4.754;2023-06-22T09:37:10;14.48;;;6.70;;
33714;SDS011;20043;50.998;4.754;2023-06-22T09:39:36;15.10;;;7.28;;
33714;SDS011;20043;50.998;4.754;2023-06-22T09:42:02;11.35;;;7.45;;
33714;SDS011;20043;50.998;4.754;2023-06-22T09:44:28;13.95;;;9.52;;
33714;SDS011;20043;50.998;4.754;2023-06-22T09:46:53;14.93;;;11.00;;
33714;SDS011;20043;50.998;4.754;2023-06-22T09:49:19;17.38;;;10.60;;
33714;SDS011;20043;50.998;4.754;2023-06-22T09:51:45;15.93;;;10.30;;
33714;SDS011;20043;50.998;4.754;2023-06-22T09:54:10;20.80;;;11.38;;
33714;SDS011;20043;50.998;4.754;2023-06-22T09:56:42;18.55;;;11.48;;
33714;SDS011;20043;50.998;4.754;2023-06-22T09:59:08;23.52;;;12.52;;
33714;SDS011;20043;50.998;4.754;2023-06-22T10:01:34;18.30;;;13.50;;
33714;SDS011;20043;50.998;4.754;2023-06-22T10:04:02;22.05;;;14.25;;
33714;SDS011;20043;50.998;4.754;2023-06-22T10:06:27;21.13;;;14.75;;
33714;SDS011;20043;50.998;4.754;2023-06-22T10:08:53;29.17;;;16.40;;
33714;SDS011;20043;50.998;4.754;2023-06-22T10:11:19;26.92;;;16.73;;
33714;SDS011;20043;50.998;4.754;2023-06-22T10:13:44;34.33;;;20.48;;
33714;SDS011;20043;50.998;4.754;2023-06-22T10:16:10;40.47;;;21.88;;
33714;SDS011;20043;50.998;4.754;2023-06-22T10:18:35;71.13;;;23.67;;
33714;SDS011;20043;50.998;4.754;2023-06-22T10:21:01;43.38;;;22.63;;
33714;SDS011;20043;50.998;4.754;2023-06-22T10:23:27;34.75;;;23.27;;
33714;SDS011;20043;50.998;4.754;2023-06-22T10:25:53;38.80;;;25.30;;
33714;SDS011;20043;50.998;4.754;2023-06-22T10:28:18;39.10;;;23.60;;
33714;SDS011;20043;50.998;4.754;2023-06-22T10:30:44;39.10;;;26.17;;
33714;SDS011;20043;50.998;4.754;2023-06-22T10:33:10;43.65;;;26.73;;
33714;SDS011;20043;50.998;4.754;2023-06-22T10:35:36;37.22;;;27.20;;
33714;SDS011;20043;50.998;4.754;2023-06-22T10:38:05;33.80;;;26.17;;
33714;SDS011;20043;50.998;4.754;2023-06-22T10:40:31;35.88;;;25.20;;
33714;SDS011;20043;50.998;4.754;2023-06-22T10:42:57;38.58;;;25.02;;
33714;SDS011;20043;50.998;4.754;2023-06-22T10:45:22;37.80;;;24.70;;
33714;SDS011;20043;50.998;4.754;2023-06-22T10:47:48;31.98;;;23.48;;
33714;SDS011;20043;50.998;4.754;2023-06-22T10:50:14;31.15;;;22.98;;
33714;SDS011;20043;50.998;4.754;2023-06-22T10:52:39;31.58;;;22.25;;
33714;SDS011;20043;50.998;4.754;2023-06-22T10:55:06;31.23;;;23.48;;
33714;SDS011;20043;50.998;4.754;2023-06-22T10:57:33;30.27;;;22.33;;
33714;SDS011;20043;50.998;4.754;2023-06-22T10:59:59;31.48;;;21.98;;
33714;SDS011;20043;50.998;4.754;2023-06-22T11:02:24;28.67;;;22.88;;
33714;SDS011;20043;50.998;4.754;2023-06-22T11:04:50;33.83;;;23.75;;
33714;SDS011;20043;50.998;4.754;2023-06-22T11:07:16;31.08;;;23.80;;
33714;SDS011;20043;50.998;4.754;2023-06-22T11:09:45;35.13;;;22.92;;
33714;SDS011;20043;50.998;4.754;2023-06-22T11:12:10;27.95;;;21.95;;
33714;SDS011;20043;50.998;4.754;2023-06-22T11:14:36;25.73;;;21.75;;
33714;SDS011;20043;50.998;4.754;2023-06-22T11:17:03;26.85;;;22.48;;
33714;SDS011;20043;50.998;4.754;2023-06-22T11:19:29;28.88;;;22.73;;
33714;SDS011;20043;50.998;4.754;2023-06-22T11:21:54;31.17;;;23.75;;
33714;SDS011;20043;50.998;4.754;2023-06-22T11:24:20;32.88;;;25.02;;
33714;SDS011;20043;50.998;4.754;2023-06-22T11:26:46;38.95;;;27.10;;
33714;SDS011;20043;50.998;4.754;2023-06-22T11:29:11;39.90;;;29.15;;
33714;SDS011;20043;50.998;4.754;2023-06-22T11:31:37;34.78;;;28.45;;
33714;SDS011;20043;50.998;4.754;2023-06-22T11:34:03;34.10;;;27.77;;
33714;SDS011;20043;50.998;4.754;2023-06-22T11:36:29;35.28;;;27.00;;
33714;SDS011;20043;50.998;4.754;2023-06-22T11:38:57;37.20;;;28.52;;
33714;SDS011;20043;50.998;4.754;2023-06-22T11:41:23;38.33;;;29.70;;
33714;SDS011;20043;50.998;4.754;2023-06-22T11:43:49;35.60;;;29.65;;
33714;SDS011;20043;50.998;4.754;2023-06-22T11:46:14;35.13;;;29.77;;
33714;SDS011;20043;50.998;4.754;2023-06-22T11:48:40;36.47;;;28.70;;
33714;SDS011;20043;50.998;4.754;2023-06-22T11:51:05;36.80;;;29.50;;
33714;SDS011;20043;50.998;4.754;2023-06-22T11:53:37;39.00;;;29.83;;
33714;SDS011;20043;50.998;4.754;2023-06-22T11:56:03;33.63;;;28.98;;
33714;SDS011;20043;50.998;4.754;2023-06-22T11:58:28;37.60;;;31.23;;
33714;SDS011;20043;50.998;4.754;2023-06-22T12:00:54;34.30;;;29.27;;
33714;SDS011;20043;50.998;4.754;2023-06-22T12:03:20;35.13;;;31.08;;
33714;SDS011;20043;50.998;4.754;2023-06-22T12:05:49;37.55;;;31.08;;
33714;SDS011;20043;50.998;4.754;2023-06-22T12:08:17;41.95;;;32.92;;
33714;SDS011;20043;50.998;4.754;2023-06-22T12:10:43;42.47;;;35.35;;
33714;SDS011;20043;50.998;4.754;2023-06-22T12:13:09;42.83;;;34.33;;
33714;SDS011;20043;50.998;4.754;2023-06-22T12:15:34;43.13;;;34.85;;
33714;SDS011;20043;50.998;4.754;2023-06-22T12:18:00;43.15;;;34.75;;
33714;SDS011;20043;50.998;4.754;2023-06-22T12:20:26;44.88;;;36.42;;
33714;SDS011;20043;50.998;4.754;2023-06-22T12:22:51;43.88;;;34.47;;
33714;SDS011;20043;50.998;4.754;2023-06-22T12:25:19;39.80;;;33.28;;
33714;SDS011;20043;50.998;4.754;2023-06-22T12:27:44;39.22;;;31.77;;
33714;SDS011;20043;50.998;4.754;2023-06-22T12:30:10;42.35;;;33.60;;
33714;SDS011;20043;50.998;4.754;2023-06-22T12:32:35;48.60;;;34.65;;
33714;SDS011;20043;50.998;4.754;2023-06-22T12:35:01;42.78;;;34.20;;
33714;SDS011;20043;50.998;4.754;2023-06-22T12:37:27;40.63;;;34.05;;
33714;SDS011;20043;50.998;4.754;2023-06-22T12:39:54;43.17;;;35.15;;
33714;SDS011;20043;50.998;4.754;2023-06-22T12:42:20;41.60;;;35.13;;
33714;SDS011;20043;50.998;4.754;2023-06-22T12:44:46;47.35;;;36.60;;
33714;SDS011;20043;50.998;4.754;2023-06-22T12:47:11;46.25;;;38.08;;
33714;SDS011;20043;50.998;4.754;2023-06-22T12:49:38;48.90;;;36.45;;
33714;SDS011;20043;50.998;4.754;2023-06-22T12:52:08;44.72;;;36.47;;
33714;SDS011;20043;50.998;4.754;2023-06-22T12:54:35;46.63;;;36.85;;
33714;SDS011;20043;50.998;4.754;2023-06-22T12:57:01;45.45;;;36.75;;
33714;SDS011;20043;50.998;4.754;2023-06-22T12:59:26;52.75;;;38.35;;
33714;SDS011;20043;50.998;4.754;2023-06-22T13:01:52;43.40;;;37.40;;
33714;SDS011;20043;50.998;4.754;2023-06-22T13:04:18;49.05;;;37.42;;
33714;SDS011;20043;50.998;4.754;2023-06-22T13:06:44;52.85;;;40.17;;
33714;SDS011;20043;50.998;4.754;2023-06-22T13:09:13;50.75;;;40.58;;
33714;SDS011;20043;50.998;4.754;2023-06-22T13:11:39;56.83;;;39.78;;
33714;SDS011;20043;50.998;4.754;2023-06-22T13:14:05;54.47;;;41.05;;
33714;SDS011;20043;50.998;4.754;2023-06-22T13:16:30;51.72;;;39.92;;
33714;SDS011;20043;50.998;4.754;2023-06-22T13:18:56;54.53;;;41.47;;
33714;SDS011;20043;50.998;4.754;2023-06-22T13:21:21;49.67;;;41.70;;
33714;SDS011;20043;50.998;4.754;2023-06-22T13:23:47;74.88;;;46.78;;
33714;SDS011;20043;50.998;4.754;2023-06-22T13:26:13;53.13;;;42.40;;
33714;SDS011;20043;50.998;4.754;2023-06-22T13:28:38;54.58;;;41.70;;
33714;SDS011;20043;50.998;4.754;2023-06-22T13:31:04;52.60;;;40.83;;
33714;SDS011;20043;50.998;4.754;2023-06-22T13:33:30;48.42;;;41.30;;
33714;SDS011;20043;50.998;4.754;2023-06-22T13:35:56;48.22;;;38.85;;
33714;SDS011;20043;50.998;4.754;2023-06-22T13:38:21;48.80;;;41.13;;
33714;SDS011;20043;50.998;4.754;2023-06-22T13:40:47;48.90;;;40.10;;
33714;SDS011;20043;50.998;4.754;2023-06-22T13:43:13;47.47;;;37.63;;
33714;SDS011;20043;50.998;4.754;2023-06-22T13:45:39;44.67;;;35.97;;
33714;SDS011;20043;50.998;4.754;2023-06-22T13:48:05;43.08;;;36.10;;
33714;SDS011;20043;50.998;4.754;2023-06-22T13:50:31;43.95;;;38.03;;
33714;SDS011;20043;50.998;4.754;2023-06-22T13:52:56;40.28;;;35.58;;
33714;SDS011;20043;50.998;4.754;2023-06-22T13:55:22;45.70;;;37.72;;
33714;SDS011;20043;50.998;4.754;2023-06-22T13:57:48;46.05;;;36.95;;
33714;SDS011;20043;50.998;4.754;2023-06-22T14:00:14;45.17;;;36.45;;
33714;SDS011;20043;50.998;4.754;2023-06-22T14:02:40;52.55;;;38.63;;
33714;SDS011;20043;50.998;4.754;2023-06-22T14:05:06;43.75;;;36.65;;
33714;SDS011;20043;50.998;4.754;2023-06-22T14:07:32;46.55;;;37.85;;
33714;SDS011;20043;50.998;4.754;2023-06-22T14:09:59;44.33;;;36.90;;
33714;SDS011;20043;50.998;4.754;2023-06-22T14:12:25;43.22;;;35.88;;
33714;SDS011;20043;50.998;4.754;2023-06-22T14:14:50;41.58;;;35.13;;
33714;SDS011;20043;50.998;4.754;2023-06-22T14:17:17;42.50;;;35.10;;
33714;SDS011;20043;50.998;4.754;2023-06-22T14:19:48;50.08;;;37.05;;
33714;SDS011;20043;50.998;4.754;2023-06-22T14:22:14;44.17;;;35.35;;
33714;SDS011;20043;50.998;4.754;2023-06-22T14:24:40;42.85;;;35.90;;
33714;SDS011;20043;50.998;4.754;2023-06-22T14:27:06;47.17;;;36.60;;
33714;SDS011;20043;50.998;4.754;2023-06-22T14:29:33;46.13;;;36.65;;
33714;SDS011;20043;50.998;4.754;2023-06-22T14:31:59;40.90;;;35.75;;
33714;SDS011;20043;50.998;4.754;2023-06-22T14:34:25;47.40;;;36.38;;